createdAt,value
2022-11-30T00:01:19.131Z,4.10
2022-11-30T00:03:46.221Z,4.24
2022-11-30T00:06:15.538Z,4.28
2022-11-30T00:08:42.137Z,4.25
2022-11-30T00:11:15.457Z,4.25
2022-11-30T00:13:42.087Z,4.29
2022-11-30T00:16:08.981Z,4.49
2022-11-30T00:18:36.612Z,4.40
2022-11-30T00:21:05.047Z,4.40
2022-11-30T00:23:42.447Z,4.24
2022-11-30T00:26:11.810Z,4.34
2022-11-30T00:28:39.743Z,4.25
2022-11-30T00:31:13.084Z,4.32
2022-11-30T00:33:40.325Z,4.24
2022-11-30T00:36:18.842Z,4.23
2022-11-30T00:38:46.288Z,4.09
2022-11-30T00:41:13.387Z,4.19
2022-11-30T00:43:40.057Z,4.25
2022-11-30T00:46:09.210Z,4.21
2022-11-30T00:48:36.618Z,4.18
2022-11-30T00:51:03.644Z,4.16
2022-11-30T00:53:30.123Z,4.17
2022-11-30T00:55:56.630Z,4.20
2022-11-30T00:58:23.117Z,4.17
2022-11-30T01:00:49.803Z,4.26
2022-11-30T01:03:16.424Z,4.18
2022-11-30T01:05:46.049Z,4.15
2022-11-30T01:08:13.494Z,4.28
2022-11-30T01:10:41.847Z,4.27
2022-11-30T01:13:09.340Z,4.08
2022-11-30T01:15:38.379Z,4.17
2022-11-30T01:18:05.231Z,4.21
2022-11-30T01:20:31.881Z,4.21
2022-11-30T01:22:58.484Z,4.26
2022-11-30T01:25:24.933Z,4.33
2022-11-30T01:27:51.610Z,4.28
2022-11-30T01:30:18.843Z,4.23
2022-11-30T01:32:45.391Z,4.23
2022-11-30T01:35:12.023Z,4.30
2022-11-30T01:37:38.469Z,4.19
2022-11-30T01:40:05.630Z,4.24
2022-11-30T01:42:33.061Z,4.11
2022-11-30T01:45:02.269Z,4.18
2022-11-30T01:47:30.759Z,4.21
2022-11-30T01:50:15.379Z,4.19
2022-11-30T01:52:48.632Z,4.15
2022-11-30T01:55:22.497Z,4.15
2022-11-30T01:57:52.178Z,4.13
2022-11-30T02:00:19.376Z,4.12
2022-11-30T02:03:02.798Z,4.15
2022-11-30T02:05:30.124Z,3.98
2022-11-30T02:07:57.001Z,4.09
2022-11-30T02:10:28.427Z,4.22
2022-11-30T02:13:10.185Z,4.18
2022-11-30T02:16:15.755Z,4.21
2022-11-30T02:18:59.427Z,4.18
2022-11-30T02:21:40.598Z,4.16
2022-11-30T02:24:32.137Z,4.17
2022-11-30T02:27:11.101Z,4.15
2022-11-30T02:29:44.539Z,4.15
2022-11-30T02:32:29.519Z,4.11
2022-11-30T02:34:58.719Z,4.14
2022-11-30T02:37:27.657Z,4.06
2022-11-30T02:39:54.185Z,4.03
2022-11-30T02:42:20.641Z,4.07
2022-11-30T02:44:50.085Z,4.09
2022-11-30T02:47:30.066Z,4.07
2022-11-30T02:50:29.702Z,4.06
2022-11-30T02:52:56.967Z,4.03
2022-11-30T02:55:23.701Z,4.06
2022-11-30T02:57:50.117Z,4.02
2022-11-30T03:00:17.012Z,3.91
2022-11-30T03:02:43.482Z,4.02
2022-11-30T03:05:10.077Z,3.95
2022-11-30T03:07:36.681Z,4.00
2022-11-30T03:10:04.764Z,3.98
2022-11-30T03:12:31.236Z,3.95
2022-11-30T03:14:57.694Z,3.99
2022-11-30T03:17:24.544Z,3.95
2022-11-30T03:19:51.010Z,3.96
2022-11-30T03:22:17.691Z,3.88
2022-11-30T03:24:44.358Z,3.95
2022-11-30T03:27:12.224Z,3.89
2022-11-30T03:29:39.327Z,3.96
2022-11-30T03:32:06.306Z,3.67
2022-11-30T03:34:33.004Z,3.77
2022-11-30T03:36:59.440Z,3.71
2022-11-30T03:39:26.001Z,3.79
2022-11-30T03:41:52.459Z,3.83
2022-11-30T03:44:19.494Z,3.84
2022-11-30T03:46:45.979Z,3.81
2022-11-30T03:49:12.482Z,3.90
2022-11-30T03:51:38.979Z,3.88
2022-11-30T03:54:05.474Z,3.82
2022-11-30T03:56:31.975Z,3.79
2022-11-30T03:58:58.429Z,3.85
2022-11-30T04:01:25.105Z,3.78
2022-11-30T04:03:52.560Z,3.77
2022-11-30T04:06:20.449Z,3.79
2022-11-30T04:08:47.333Z,3.73
2022-11-30T04:11:14.536Z,3.73
2022-11-30T04:13:41.987Z,3.63
2022-11-30T04:16:09.031Z,3.63
2022-11-30T04:18:36.482Z,3.57
2022-11-30T04:21:03.324Z,3.48
2022-11-30T04:23:32.472Z,3.59
2022-11-30T04:25:59.215Z,3.47
2022-11-30T04:28:25.687Z,3.58
2022-11-30T04:30:53.369Z,3.51
2022-11-30T04:33:20.000Z,3.50
2022-11-30T04:35:49.861Z,3.59
2022-11-30T04:38:16.358Z,3.57
2022-11-30T04:40:43.594Z,3.49
2022-11-30T04:43:11.823Z,3.41
2022-11-30T04:45:38.556Z,3.43
2022-11-30T04:48:06.283Z,3.47
2022-11-30T04:50:32.975Z,3.47
2022-11-30T04:52:59.416Z,3.49
2022-11-30T04:55:25.964Z,3.52
2022-11-30T04:57:52.461Z,3.17
2022-11-30T05:00:19.813Z,3.28
2022-11-30T05:02:52.160Z,3.27
2022-11-30T05:05:19.498Z,3.42
2022-11-30T05:07:59.220Z,3.45
2022-11-30T05:10:27.452Z,3.47
2022-11-30T05:12:54.207Z,3.44
2022-11-30T05:15:20.980Z,3.40
2022-11-30T05:17:47.445Z,3.41
2022-11-30T05:20:13.920Z,3.42
2022-11-30T05:22:40.586Z,3.40
2022-11-30T05:25:07.480Z,3.34
2022-11-30T05:27:35.238Z,3.33
2022-11-30T05:30:02.111Z,3.28
2022-11-30T05:32:28.563Z,3.30
2022-11-30T05:34:55.388Z,3.29
2022-11-30T05:37:22.095Z,3.29
2022-11-30T05:39:48.878Z,3.26
2022-11-30T05:42:15.326Z,3.24
2022-11-30T05:44:41.820Z,3.20
2022-11-30T05:47:09.239Z,3.21
2022-11-30T05:49:36.011Z,3.16
2022-11-30T05:52:02.719Z,3.15
2022-11-30T05:54:29.154Z,3.14
2022-11-30T05:56:55.569Z,3.16
2022-11-30T05:59:22.918Z,3.13
2022-11-30T06:01:52.517Z,3.09
2022-11-30T06:04:19.624Z,3.07
2022-11-30T06:06:46.237Z,3.03
2022-11-30T06:09:12.751Z,2.96
2022-11-30T06:11:39.201Z,2.95
2022-11-30T06:14:05.672Z,2.98
2022-11-30T06:16:32.303Z,2.94
2022-11-30T06:18:58.801Z,2.99
2022-11-30T06:21:25.297Z,2.90
2022-11-30T06:23:52.755Z,2.84
2022-11-30T06:26:19.303Z,2.79
2022-11-30T06:28:48.547Z,2.83
2022-11-30T06:31:16.482Z,2.77
2022-11-30T06:33:43.152Z,2.77
2022-11-30T06:36:10.415Z,2.74
2022-11-30T06:38:37.312Z,2.71
2022-11-30T06:41:09.735Z,2.70
2022-11-30T06:43:38.349Z,2.69
2022-11-30T06:46:06.871Z,2.65
2022-11-30T06:48:34.182Z,2.63
2022-11-30T06:51:00.661Z,2.63
2022-11-30T06:53:27.542Z,2.62
2022-11-30T06:55:54.097Z,2.57
2022-11-30T06:58:20.893Z,2.60
2022-11-30T07:00:47.510Z,2.58
2022-11-30T07:03:14.310Z,2.53
2022-11-30T07:05:45.774Z,2.50
2022-11-30T07:08:14.304Z,2.52
2022-11-30T07:10:42.467Z,2.53
2022-11-30T07:13:13.433Z,2.55
2022-11-30T07:15:41.470Z,2.52
2022-11-30T07:18:10.142Z,2.49
2022-11-30T07:20:39.349Z,2.46
2022-11-30T07:23:25.536Z,2.45
2022-11-30T07:26:09.248Z,2.46
2022-11-30T07:28:37.798Z,2.35
2022-11-30T07:31:16.837Z,2.41
2022-11-30T07:33:43.946Z,2.44
2022-11-30T07:36:11.289Z,2.41
2022-11-30T07:38:38.599Z,2.34
2022-11-30T07:41:05.301Z,2.38
2022-11-30T07:43:31.990Z,2.25
2022-11-30T07:45:58.874Z,2.29
2022-11-30T07:48:25.355Z,2.33
2022-11-30T07:50:51.798Z,2.38
2022-11-30T07:53:18.277Z,2.34
2022-11-30T07:55:45.257Z,2.41
2022-11-30T07:58:17.173Z,2.39
2022-11-30T08:00:44.273Z,2.43
2022-11-30T08:03:10.879Z,2.44
2022-11-30T08:05:37.457Z,2.55
2022-11-30T08:08:03.928Z,2.65
2022-11-30T08:10:30.739Z,2.69
2022-11-30T08:12:57.176Z,2.68
2022-11-30T08:15:29.188Z,2.76
2022-11-30T08:18:05.066Z,2.81
2022-11-30T08:20:31.532Z,2.88
2022-11-30T08:22:58.614Z,2.93
2022-11-30T08:25:25.040Z,3.00
2022-11-30T08:27:51.455Z,3.04
2022-11-30T08:30:17.909Z,3.13
2022-11-30T08:32:44.390Z,3.17
2022-11-30T08:35:10.866Z,3.23
2022-11-30T08:37:37.836Z,3.31
2022-11-30T08:40:05.210Z,3.39
2022-11-30T08:42:31.741Z,3.48
2022-11-30T08:44:58.416Z,3.49
2022-11-30T08:47:25.369Z,3.62
2022-11-30T08:49:52.014Z,3.64
2022-11-30T08:52:19.155Z,3.71
2022-11-30T08:54:48.135Z,3.66
2022-11-30T08:57:17.385Z,3.63
2022-11-30T08:59:44.229Z,3.62
2022-11-30T09:02:13.268Z,3.65
2022-11-30T09:04:39.752Z,3.71
2022-11-30T09:07:06.266Z,3.70
2022-11-30T09:09:32.777Z,3.71
2022-11-30T09:11:59.201Z,3.68
2022-11-30T09:14:25.635Z,3.70
2022-11-30T09:16:53.870Z,3.62
2022-11-30T09:19:20.692Z,3.64
2022-11-30T09:21:51.880Z,3.69
2022-11-30T09:24:19.520Z,3.74
2022-11-30T09:26:45.995Z,3.72
2022-11-30T09:29:12.517Z,3.76
2022-11-30T09:31:38.925Z,3.79
2022-11-30T09:34:05.405Z,3.79
2022-11-30T09:36:33.381Z,3.81
2022-11-30T09:38:59.878Z,3.81
2022-11-30T09:41:44.860Z,3.88
2022-11-30T09:44:20.337Z,3.95
2022-11-30T09:47:07.987Z,4.01
2022-11-30T09:49:37.574Z,4.01
2022-11-30T09:52:09.527Z,4.06
2022-11-30T09:54:42.691Z,4.10
2022-11-30T09:57:25.201Z,4.16
2022-11-30T10:00:16.588Z,4.24
2022-11-30T10:02:43.932Z,4.29
2022-11-30T10:05:24.803Z,4.32
2022-11-30T10:08:26.280Z,4.41
2022-11-30T10:11:01.598Z,4.40
2022-11-30T10:13:53.065Z,4.41
2022-11-30T10:17:00.767Z,4.46
2022-11-30T10:19:37.449Z,4.53
2022-11-30T10:22:25.911Z,4.57
2022-11-30T10:25:12.366Z,4.58
2022-11-30T10:27:53.737Z,4.59
2022-11-30T10:30:22.931Z,4.65
2022-11-30T10:32:53.399Z,4.73
2022-11-30T10:35:29.767Z,4.79
2022-11-30T10:38:00.023Z,4.85
2022-11-30T10:40:44.046Z,4.90
2022-11-30T10:43:22.303Z,4.94
2022-11-30T10:45:50.460Z,4.87
2022-11-30T10:48:19.639Z,5.01
2022-11-30T10:50:46.602Z,4.96
2022-11-30T10:53:13.415Z,5.01
2022-11-30T10:55:43.732Z,5.04
2022-11-30T10:58:33.340Z,5.09
2022-11-30T11:01:07.274Z,5.17
2022-11-30T11:03:34.180Z,5.17
2022-11-30T11:06:47.925Z,5.17
2022-11-30T11:09:34.814Z,5.19
2022-11-30T11:12:25.607Z,5.20
2022-11-30T11:15:13.241Z,5.15
2022-11-30T11:17:39.664Z,5.19
2022-11-30T11:20:31.383Z,5.23
2022-11-30T11:22:58.042Z,5.22
2022-11-30T11:25:28.135Z,5.25
2022-11-30T11:28:01.465Z,5.25
2022-11-30T11:30:30.766Z,5.22
2022-11-30T11:32:59.939Z,5.23
2022-11-30T11:35:55.146Z,5.27
2022-11-30T11:38:27.192Z,5.36
2022-11-30T11:40:59.247Z,5.37
2022-11-30T11:43:28.110Z,5.38
2022-11-30T11:45:58.947Z,5.44
2022-11-30T11:48:39.199Z,5.51
2022-11-30T11:51:10.443Z,5.54
2022-11-30T11:53:51.586Z,5.61
2022-11-30T11:56:31.889Z,5.55
2022-11-30T11:59:05.079Z,5.54
2022-11-30T12:01:55.288Z,5.58
2022-11-30T12:04:44.316Z,5.63
2022-11-30T12:07:23.926Z,5.64
2022-11-30T12:10:49.503Z,5.67
2022-11-30T12:13:01.879Z,5.66
2022-11-30T12:15:39.659Z,5.67
2022-11-30T12:18:24.209Z,5.67
2022-11-30T12:21:00.462Z,5.71
2022-11-30T12:23:54.125Z,5.81
2022-11-30T12:26:38.305Z,5.80
2022-11-30T12:29:17.398Z,5.66
2022-11-30T12:31:59.539Z,5.74
2022-11-30T12:34:53.871Z,5.65
2022-11-30T12:37:42.951Z,5.71
2022-11-30T12:40:28.367Z,5.88
2022-11-30T12:43:03.638Z,5.73
2022-11-30T12:45:37.347Z,5.69
2022-11-30T12:48:18.630Z,5.78
2022-11-30T12:50:59.219Z,5.68
2022-11-30T12:53:36.518Z,5.58
2022-11-30T12:56:32.179Z,5.56
2022-11-30T12:59:17.590Z,5.46
2022-11-30T13:02:06.003Z,5.35
2022-11-30T13:04:46.292Z,5.25
2022-11-30T13:07:24.756Z,5.24
2022-11-30T13:10:02.063Z,5.25
2022-11-30T13:12:37.132Z,5.39
2022-11-30T13:15:15.281Z,5.28
2022-11-30T13:17:43.703Z,5.38
2022-11-30T13:20:40.346Z,5.43
2022-11-30T13:23:27.509Z,5.25
2022-11-30T13:26:16.779Z,5.39
2022-11-30T13:28:43.188Z,5.40
2022-11-30T13:31:29.734Z,5.20
2022-11-30T13:33:56.116Z,5.34
2022-11-30T13:36:22.548Z,5.11
2022-11-30T13:39:09.693Z,5.16
2022-11-30T13:41:37.911Z,5.37
2022-11-30T13:44:04.770Z,5.49
2022-11-30T13:46:31.530Z,5.44
2022-11-30T13:49:23.893Z,5.51
2022-11-30T13:52:20.072Z,5.45
2022-11-30T13:54:41.729Z,5.52
2022-11-30T13:57:27.237Z,5.05
2022-11-30T14:00:01.095Z,5.29
2022-11-30T14:02:33.853Z,5.15
2022-11-30T14:05:18.684Z,5.35
2022-11-30T14:08:00.579Z,5.31
2022-11-30T14:10:36.010Z,5.17
2022-11-30T14:13:30.680Z,5.21
2022-11-30T14:16:00.579Z,5.30
2022-11-30T14:18:32.850Z,5.19
2022-11-30T14:21:23.937Z,5.20
2022-11-30T14:23:56.536Z,5.10
2022-11-30T14:26:32.398Z,5.16
2022-11-30T14:29:02.701Z,5.22
2022-11-30T14:31:33.651Z,5.05
2022-11-30T14:34:09.017Z,4.89
2022-11-30T14:36:41.444Z,5.17
2022-11-30T14:39:24.919Z,5.02
2022-11-30T14:41:51.647Z,4.70
2022-11-30T14:44:18.091Z,4.75
2022-11-30T14:46:44.953Z,4.87
2022-11-30T14:49:23.269Z,4.86
2022-11-30T14:52:04.064Z,4.76
2022-11-30T14:54:49.488Z,5.02
2022-11-30T14:57:24.886Z,5.02
2022-11-30T14:59:53.654Z,5.07
2022-11-30T15:02:38.519Z,5.04
2022-11-30T15:05:07.038Z,5.10
2022-11-30T15:07:35.438Z,5.13
2022-11-30T15:10:29.726Z,4.71
2022-11-30T15:12:58.418Z,4.87
2022-11-30T15:15:27.766Z,4.99
2022-11-30T15:17:59.347Z,4.83
2022-11-30T15:20:56.757Z,4.82
2022-11-30T15:23:23.429Z,4.74
2022-11-30T15:25:55.272Z,4.75
2022-11-30T15:28:26.138Z,4.85
2022-11-30T15:30:58.443Z,4.88
2022-11-30T15:33:33.722Z,4.73
2022-11-30T15:36:19.197Z,4.67
2022-11-30T15:38:50.654Z,4.67
2022-11-30T15:41:22.402Z,4.73
2022-11-30T15:43:54.302Z,4.70
2022-11-30T15:46:29.037Z,4.69
2022-11-30T15:49:15.333Z,4.73
2022-11-30T15:51:44.404Z,4.75
2022-11-30T15:54:11.111Z,4.68
2022-11-30T15:56:38.108Z,4.66
2022-11-30T15:59:13.960Z,4.66
2022-11-30T16:02:14.215Z,4.71
2022-11-30T16:05:21.363Z,4.54
2022-11-30T16:07:59.897Z,4.59
2022-11-30T16:10:35.360Z,4.55
2022-11-30T16:13:02.267Z,4.65
2022-11-30T16:15:31.528Z,4.69
2022-11-30T16:18:21.209Z,4.60
2022-11-30T16:20:51.046Z,4.62
2022-11-30T16:23:18.401Z,4.41
2022-11-30T16:25:46.774Z,4.41
2022-11-30T16:28:15.442Z,4.41
2022-11-30T16:30:42.345Z,4.47
2022-11-30T16:33:22.979Z,4.54
2022-11-30T16:35:57.406Z,4.49
2022-11-30T16:38:25.043Z,4.32
2022-11-30T16:40:54.005Z,4.22
2022-11-30T16:43:26.174Z,4.18
2022-11-30T16:45:52.684Z,4.28
2022-11-30T16:48:19.265Z,4.38
2022-11-30T16:50:46.505Z,4.41
2022-11-30T16:53:16.911Z,4.38
2022-11-30T16:55:43.527Z,4.24
2022-11-30T16:58:10.014Z,4.08
2022-11-30T17:00:38.709Z,3.85
2022-11-30T17:03:20.476Z,3.73
2022-11-30T17:05:47.266Z,3.63
2022-11-30T17:08:14.105Z,3.85
2022-11-30T17:10:40.582Z,3.64
2022-11-30T17:13:07.053Z,3.50
2022-11-30T17:15:33.588Z,3.53
2022-11-30T17:18:00.236Z,3.86
2022-11-30T17:20:27.664Z,3.80
2022-11-30T17:22:54.222Z,3.90
2022-11-30T17:25:23.306Z,3.88
2022-11-30T17:27:51.208Z,3.96
2022-11-30T17:30:20.396Z,4.06
2022-11-30T17:32:47.772Z,3.93
2022-11-30T17:35:14.780Z,4.07
2022-11-30T17:37:41.282Z,3.90
2022-11-30T17:40:08.772Z,3.82
2022-11-30T17:42:35.261Z,3.74
2022-11-30T17:45:01.758Z,3.94
2022-11-30T17:47:28.324Z,3.99
2022-11-30T17:49:54.934Z,3.94
2022-11-30T17:52:21.548Z,3.71
2022-11-30T17:54:48.222Z,3.93
2022-11-30T17:57:14.857Z,3.99
2022-11-30T17:59:41.283Z,3.87
2022-11-30T18:02:11.093Z,3.98
2022-11-30T18:04:37.703Z,4.01
2022-11-30T18:07:04.190Z,3.99
2022-11-30T18:09:30.645Z,4.03
2022-11-30T18:11:57.103Z,4.07
2022-11-30T18:14:23.813Z,4.02
2022-11-30T18:16:50.498Z,4.09
2022-11-30T18:19:17.996Z,4.10
2022-11-30T18:21:44.930Z,3.96
2022-11-30T18:24:12.382Z,3.98
2022-11-30T18:26:39.675Z,4.12
2022-11-30T18:29:07.022Z,3.84
2022-11-30T18:31:33.929Z,3.82
2022-11-30T18:34:03.062Z,4.04
2022-11-30T18:36:30.909Z,4.07
2022-11-30T18:38:57.487Z,4.07
2022-11-30T18:41:26.105Z,4.08
2022-11-30T18:43:53.693Z,4.10
2022-11-30T18:46:20.558Z,3.93
2022-11-30T18:48:51.758Z,3.97
2022-11-30T18:51:19.444Z,3.95
2022-11-30T18:53:46.475Z,4.00
2022-11-30T18:56:14.779Z,3.94
2022-11-30T18:58:42.457Z,3.97
2022-11-30T19:01:11.837Z,4.02
2022-11-30T19:03:38.790Z,4.09
2022-11-30T19:06:06.721Z,3.96
2022-11-30T19:08:33.725Z,4.05
2022-11-30T19:11:08.768Z,4.04
2022-11-30T19:13:35.854Z,3.93
2022-11-30T19:16:05.034Z,3.70
2022-11-30T19:18:32.118Z,3.88
2022-11-30T19:20:58.645Z,3.96
2022-11-30T19:23:25.210Z,3.96
2022-11-30T19:25:52.028Z,3.77
2022-11-30T19:28:18.732Z,3.92
2022-11-30T19:30:45.198Z,3.99
2022-11-30T19:33:14.030Z,3.94
2022-11-30T19:35:40.579Z,3.96
2022-11-30T19:38:07.084Z,3.97
2022-11-30T19:40:36.025Z,3.91
2022-11-30T19:43:02.449Z,3.89
2022-11-30T19:45:28.953Z,3.97
2022-11-30T19:47:55.384Z,4.01
2022-11-30T19:50:22.892Z,3.40
2022-11-30T19:52:50.019Z,3.29
2022-11-30T19:55:16.569Z,3.43
2022-11-30T19:57:43.094Z,3.69
2022-11-30T20:00:10.295Z,3.48
2022-11-30T20:02:39.830Z,3.26
2022-11-30T20:05:06.519Z,3.35
2022-11-30T20:07:33.037Z,3.65
2022-11-30T20:09:59.517Z,3.73
2022-11-30T20:12:25.945Z,3.66
2022-11-30T20:14:52.451Z,3.36
2022-11-30T20:17:18.895Z,3.64
2022-11-30T20:19:45.319Z,3.52
2022-11-30T20:22:11.741Z,3.35
2022-11-30T20:24:38.219Z,3.44
2022-11-30T20:27:04.709Z,3.47
2022-11-30T20:29:31.355Z,3.57
2022-11-30T20:31:58.055Z,3.34
2022-11-30T20:34:27.489Z,3.38
2022-11-30T20:36:57.624Z,3.45
2022-11-30T20:39:24.039Z,3.69
2022-11-30T20:41:50.465Z,3.77
2022-11-30T20:44:16.977Z,3.50
2022-11-30T20:46:43.749Z,3.50
2022-11-30T20:49:17.732Z,3.75
2022-11-30T20:51:45.002Z,3.62
2022-11-30T20:54:12.139Z,3.51
2022-11-30T20:56:39.259Z,3.71
2022-11-30T20:59:08.905Z,3.67
2022-11-30T21:01:35.632Z,3.49
2022-11-30T21:04:02.248Z,3.38
2022-11-30T21:06:30.178Z,3.40
2022-11-30T21:08:57.006Z,3.38
2022-11-30T21:11:23.607Z,3.68
2022-11-30T21:13:51.306Z,3.68
2022-11-30T21:16:27.255Z,3.75
2022-11-30T21:18:55.028Z,3.22
2022-11-30T21:21:23.934Z,3.21
2022-11-30T21:23:50.662Z,3.03
2022-11-30T21:26:20.076Z,3.32
2022-11-30T21:28:47.706Z,2.98
2022-11-30T21:31:15.230Z,3.29
2022-11-30T21:33:45.598Z,3.34
2022-11-30T21:36:17.033Z,3.45
2022-11-30T21:38:43.661Z,3.45
2022-11-30T21:41:12.352Z,3.50
2022-11-30T21:43:39.113Z,3.32
2022-11-30T21:46:07.965Z,3.25
2022-11-30T21:48:36.580Z,3.36
2022-11-30T21:51:06.357Z,3.56
2022-11-30T21:53:37.178Z,3.33
2022-11-30T21:56:05.283Z,3.28
2022-11-30T21:58:32.733Z,3.12
2022-11-30T22:01:00.879Z,3.29
2022-11-30T22:03:28.006Z,3.22
2022-11-30T22:06:06.493Z,3.26
2022-11-30T22:08:33.874Z,3.46
2022-11-30T22:11:09.121Z,3.41
2022-11-30T22:13:36.285Z,3.41
2022-11-30T22:16:07.716Z,3.23
2022-11-30T22:18:34.688Z,3.15
2022-11-30T22:21:04.519Z,3.22
2022-11-30T22:23:32.782Z,3.26
2022-11-30T22:26:25.150Z,3.10
2022-11-30T22:28:59.996Z,3.15
2022-11-30T22:31:29.116Z,3.09
2022-11-30T22:33:57.020Z,3.35
2022-11-30T22:36:25.818Z,3.05
2022-11-30T22:38:57.143Z,3.25
2022-11-30T22:41:23.690Z,3.31
2022-11-30T22:43:50.214Z,3.20
2022-11-30T22:46:19.267Z,2.96
2022-11-30T22:48:45.957Z,2.75
2022-11-30T22:51:14.839Z,2.71
2022-11-30T22:53:42.068Z,2.95
2022-11-30T22:56:14.269Z,2.80
2022-11-30T22:58:42.306Z,2.97
2022-11-30T23:01:30.695Z,3.12
2022-11-30T23:04:02.132Z,3.17
2022-11-30T23:06:28.636Z,3.05
2022-11-30T23:08:55.163Z,3.03
2022-11-30T23:11:23.548Z,3.17
2022-11-30T23:13:50.590Z,3.00
2022-11-30T23:16:17.771Z,2.99
2022-11-30T23:18:48.293Z,2.70
2022-11-30T23:21:19.917Z,2.87
2022-11-30T23:23:47.340Z,2.87
2022-11-30T23:26:29.056Z,2.60
2022-11-30T23:28:59.773Z,3.09
2022-11-30T23:31:32.327Z,3.04
2022-11-30T23:34:01.652Z,3.13
2022-11-30T23:36:28.414Z,2.78
2022-11-30T23:39:00.243Z,2.72
2022-11-30T23:41:27.307Z,2.89
2022-11-30T23:43:53.981Z,2.82
2022-11-30T23:46:20.869Z,3.00
2022-11-30T23:48:47.363Z,2.72
2022-11-30T23:51:13.906Z,2.62
2022-11-30T23:53:40.357Z,2.76
2022-11-30T23:56:11.133Z,2.88
2022-11-30T23:58:39.516Z,2.88
